Terminal Aerodrome Forecast
Issued by NWS

Home | Current Version | Previous Version | Text Only | Print | Product List | Glossary On
Versions: 1 2 3 4 5 6 7 8 9 10 11 12 13
000
FTUS42 KMLB 310542
TAFLEE
TAF
KLEE 310542Z 3106/0106 18008KT P6SM VCSH SCT011
     FM311300 18006KT P6SM VCSH SCT020 BKN100 OVC250
     FM311800 20007KT P6SM VCTS SCT020CB BKN040 OVC150
      TEMPO 3119/3122 2SM TSRA BKN025CB
     FM010000 18005KT P6SM VCSH SCT020 SCT050 BKN150=

USA.gov is the U.S. government's official web portal to all federal, state and local government web resources and services.